sensor_id;sensor_type;location;lat;lon;timestamp;P1;durP1;ratioP1;P2;durP2;ratioP2
56457;SDS011;42360;42.918;12.366;2022-07-22T00:02:14;6.22;;;5.63;;
56457;SDS011;42360;42.918;12.366;2022-07-22T00:04:40;5.85;;;5.00;;
56457;SDS011;42360;42.918;12.366;2022-07-22T00:07:06;6.90;;;5.70;;
56457;SDS011;42360;42.918;12.366;2022-07-22T00:09:31;7.70;;;5.30;;
56457;SDS011;42360;42.918;12.366;2022-07-22T00:11:58;7.40;;;5.75;;
56457;SDS011;42360;42.918;12.366;2022-07-22T00:14:24;5.97;;;5.47;;
56457;SDS011;42360;42.918;12.366;2022-07-22T00:16:49;5.90;;;5.25;;
56457;SDS011;42360;42.918;12.366;2022-07-22T00:19:15;6.53;;;5.90;;
56457;SDS011;42360;42.918;12.366;2022-07-22T00:21:41;9.90;;;5.30;;
56457;SDS011;42360;42.918;12.366;2022-07-22T00:24:06;6.05;;;5.35;;
56457;SDS011;42360;42.918;12.366;2022-07-22T00:26:32;5.90;;;5.38;;
56457;SDS011;42360;42.918;12.366;2022-07-22T00:28:58;6.10;;;5.50;;
56457;SDS011;42360;42.918;12.366;2022-07-22T00:31:24;5.80;;;5.30;;
56457;SDS011;42360;42.918;12.366;2022-07-22T00:33:49;6.72;;;6.00;;
56457;SDS011;42360;42.918;12.366;2022-07-22T00:36:15;6.10;;;5.50;;
56457;SDS011;42360;42.918;12.366;2022-07-22T00:38:40;6.70;;;5.22;;
56457;SDS011;42360;42.918;12.366;2022-07-22T00:41:06;6.18;;;5.53;;
56457;SDS011;42360;42.918;12.366;2022-07-22T00:46:16;8.73;;;5.50;;
56457;SDS011;42360;42.918;12.366;2022-07-22T00:48:41;6.22;;;5.60;;
56457;SDS011;42360;42.918;12.366;2022-07-22T00:51:07;6.60;;;5.70;;
56457;SDS011;42360;42.918;12.366;2022-07-22T00:53:33;6.15;;;5.65;;
56457;SDS011;42360;42.918;12.366;2022-07-22T00:55:58;8.30;;;5.20;;
56457;SDS011;42360;42.918;12.366;2022-07-22T00:58:24;5.80;;;5.15;;
56457;SDS011;42360;42.918;12.366;2022-07-22T01:00:50;5.60;;;5.10;;
56457;SDS011;42360;42.918;12.366;2022-07-22T01:03:15;6.43;;;5.60;;
56457;SDS011;42360;42.918;12.366;2022-07-22T01:05:42;6.30;;;5.60;;
56457;SDS011;42360;42.918;12.366;2022-07-22T01:08:07;7.20;;;5.88;;
56457;SDS011;42360;42.918;12.366;2022-07-22T01:10:33;6.05;;;5.50;;
56457;SDS011;42360;42.918;12.366;2022-07-22T01:12:59;6.32;;;5.72;;
56457;SDS011;42360;42.918;12.366;2022-07-22T01:15:25;5.93;;;5.32;;
56457;SDS011;42360;42.918;12.366;2022-07-22T01:17:50;6.60;;;5.28;;
56457;SDS011;42360;42.918;12.366;2022-07-22T01:20:16;7.20;;;4.88;;
56457;SDS011;42360;42.918;12.366;2022-07-22T01:22:42;5.55;;;5.07;;
56457;SDS011;42360;42.918;12.366;2022-07-22T01:25:10;5.70;;;5.20;;
56457;SDS011;42360;42.918;12.366;2022-07-22T01:27:36;6.40;;;5.53;;
56457;SDS011;42360;42.918;12.366;2022-07-22T01:30:03;5.15;;;4.70;;
56457;SDS011;42360;42.918;12.366;2022-07-22T01:32:29;8.10;;;5.20;;
56457;SDS011;42360;42.918;12.366;2022-07-22T01:34:55;5.75;;;4.55;;
56457;SDS011;42360;42.918;12.366;2022-07-22T01:37:21;4.85;;;4.35;;
56457;SDS011;42360;42.918;12.366;2022-07-22T01:39:48;4.32;;;3.63;;
56457;SDS011;42360;42.918;12.366;2022-07-22T01:42:14;4.65;;;4.25;;
56457;SDS011;42360;42.918;12.366;2022-07-22T01:44:40;3.80;;;3.50;;
56457;SDS011;42360;42.918;12.366;2022-07-22T01:47:06;6.18;;;3.67;;
56457;SDS011;42360;42.918;12.366;2022-07-22T01:49:32;5.40;;;3.78;;
56457;SDS011;42360;42.918;12.366;2022-07-22T01:51:59;3.60;;;3.30;;
56457;SDS011;42360;42.918;12.366;2022-07-22T01:54:26;4.18;;;3.47;;
56457;SDS011;42360;42.918;12.366;2022-07-22T01:56:51;3.78;;;3.47;;
56457;SDS011;42360;42.918;12.366;2022-07-22T01:59:17;4.05;;;3.70;;
56457;SDS011;42360;42.918;12.366;2022-07-22T02:01:42;5.28;;;3.42;;
56457;SDS011;42360;42.918;12.366;2022-07-22T02:04:08;7.40;;;4.05;;
56457;SDS011;42360;42.918;12.366;2022-07-22T02:06:34;4.90;;;3.58;;
56457;SDS011;42360;42.918;12.366;2022-07-22T02:08:59;4.50;;;3.30;;
56457;SDS011;42360;42.918;12.366;2022-07-22T02:11:25;5.05;;;3.50;;
56457;SDS011;42360;42.918;12.366;2022-07-22T02:13:51;3.60;;;3.40;;
56457;SDS011;42360;42.918;12.366;2022-07-22T02:16:16;3.85;;;3.45;;
56457;SDS011;42360;42.918;12.366;2022-07-22T02:18:42;3.95;;;3.20;;
56457;SDS011;42360;42.918;12.366;2022-07-22T02:21:08;4.97;;;3.15;;
56457;SDS011;42360;42.918;12.366;2022-07-22T02:23:33;3.60;;;3.30;;
56457;SDS011;42360;42.918;12.366;2022-07-22T02:25:59;4.57;;;3.03;;
56457;SDS011;42360;42.918;12.366;2022-07-22T02:28:24;3.75;;;3.45;;
56457;SDS011;42360;42.918;12.366;2022-07-22T02:30:50;4.80;;;3.38;;
56457;SDS011;42360;42.918;12.366;2022-07-22T02:33:15;3.70;;;3.38;;
56457;SDS011;42360;42.918;12.366;2022-07-22T02:35:41;3.70;;;3.40;;
56457;SDS011;42360;42.918;12.366;2022-07-22T02:38:07;3.80;;;2.83;;
56457;SDS011;42360;42.918;12.366;2022-07-22T02:40:32;3.08;;;2.88;;
56457;SDS011;42360;42.918;12.366;2022-07-22T02:42:58;4.90;;;3.08;;
56457;SDS011;42360;42.918;12.366;2022-07-22T02:45:24;3.33;;;2.95;;
56457;SDS011;42360;42.918;12.366;2022-07-22T02:47:54;3.42;;;3.15;;
56457;SDS011;42360;42.918;12.366;2022-07-22T02:50:21;7.68;;;3.08;;
56457;SDS011;42360;42.918;12.366;2022-07-22T02:52:47;4.18;;;3.58;;
56457;SDS011;42360;42.918;12.366;2022-07-22T02:55:13;4.30;;;3.90;;
56457;SDS011;42360;42.918;12.366;2022-07-22T02:57:39;4.43;;;4.03;;
56457;SDS011;42360;42.918;12.366;2022-07-22T03:00:06;4.05;;;3.70;;
56457;SDS011;42360;42.918;12.366;2022-07-22T03:02:36;4.22;;;3.92;;
56457;SDS011;42360;42.918;12.366;2022-07-22T03:05:02;4.15;;;3.75;;
56457;SDS011;42360;42.918;12.366;2022-07-22T03:07:29;5.38;;;3.80;;
56457;SDS011;42360;42.918;12.366;2022-07-22T03:09:54;4.28;;;3.85;;
56457;SDS011;42360;42.918;12.366;2022-07-22T03:12:20;4.68;;;4.28;;
56457;SDS011;42360;42.918;12.366;2022-07-22T03:14:46;6.40;;;5.00;;
56457;SDS011;42360;42.918;12.366;2022-07-22T03:17:11;4.38;;;4.00;;
56457;SDS011;42360;42.918;12.366;2022-07-22T03:19:37;4.88;;;4.40;;
56457;SDS011;42360;42.918;12.366;2022-07-22T03:22:02;4.82;;;4.22;;
56457;SDS011;42360;42.918;12.366;2022-07-22T03:24:28;4.32;;;3.92;;
56457;SDS011;42360;42.918;12.366;2022-07-22T03:26:54;4.50;;;4.10;;
56457;SDS011;42360;42.918;12.366;2022-07-22T03:29:19;4.95;;;3.85;;
56457;SDS011;42360;42.918;12.366;2022-07-22T03:31:45;4.88;;;4.38;;
56457;SDS011;42360;42.918;12.366;2022-07-22T03:34:10;4.30;;;4.00;;
56457;SDS011;42360;42.918;12.366;2022-07-22T03:36:36;4.90;;;4.40;;
56457;SDS011;42360;42.918;12.366;2022-07-22T03:39:02;5.90;;;4.30;;
56457;SDS011;42360;42.918;12.366;2022-07-22T03:41:27;5.10;;;4.60;;
56457;SDS011;42360;42.918;12.366;2022-07-22T03:43:53;5.50;;;4.82;;
56457;SDS011;42360;42.918;12.366;2022-07-22T03:46:19;5.03;;;4.63;;
56457;SDS011;42360;42.918;12.366;2022-07-22T03:48:44;6.53;;;5.07;;
56457;SDS011;42360;42.918;12.366;2022-07-22T03:51:10;5.22;;;4.50;;
56457;SDS011;42360;42.918;12.366;2022-07-22T03:53:35;5.03;;;4.22;;
56457;SDS011;42360;42.918;12.366;2022-07-22T03:56:01;6.40;;;4.43;;
56457;SDS011;42360;42.918;12.366;2022-07-22T03:58:27;5.88;;;4.82;;
56457;SDS011;42360;42.918;12.366;2022-07-22T04:00:53;5.90;;;4.40;;
56457;SDS011;42360;42.918;12.366;2022-07-22T04:03:19;10.38;;;4.60;;
56457;SDS011;42360;42.918;12.366;2022-07-22T04:05:45;6.13;;;4.40;;
56457;SDS011;42360;42.918;12.366;2022-07-22T04:08:11;4.70;;;4.30;;
56457;SDS011;42360;42.918;12.366;2022-07-22T04:10:37;5.97;;;4.28;;
56457;SDS011;42360;42.918;12.366;2022-07-22T04:13:03;8.63;;;3.92;;
56457;SDS011;42360;42.918;12.366;2022-07-22T04:15:28;5.25;;;4.65;;
56457;SDS011;42360;42.918;12.366;2022-07-22T04:17:54;7.03;;;4.20;;
56457;SDS011;42360;42.918;12.366;2022-07-22T04:20:20;4.97;;;4.20;;
56457;SDS011;42360;42.918;12.366;2022-07-22T04:22:45;5.57;;;4.32;;
56457;SDS011;42360;42.918;12.366;2022-07-22T04:25:11;5.32;;;4.30;;
56457;SDS011;42360;42.918;12.366;2022-07-22T04:27:36;5.85;;;4.22;;
56457;SDS011;42360;42.918;12.366;2022-07-22T04:30:02;4.50;;;4.10;;
56457;SDS011;42360;42.918;12.366;2022-07-22T04:32:28;4.60;;;4.20;;
56457;SDS011;42360;42.918;12.366;2022-07-22T04:34:54;5.22;;;4.13;;
56457;SDS011;42360;42.918;12.366;2022-07-22T04:37:19;7.75;;;4.40;;
56457;SDS011;42360;42.918;12.366;2022-07-22T04:39:45;6.38;;;4.60;;
56457;SDS011;42360;42.918;12.366;2022-07-22T04:42:10;4.97;;;4.15;;
56457;SDS011;42360;42.918;12.366;2022-07-22T04:44:36;4.88;;;4.38;;
56457;SDS011;42360;42.918;12.366;2022-07-22T04:47:02;5.32;;;4.32;;
56457;SDS011;42360;42.918;12.366;2022-07-22T04:49:28;6.32;;;4.75;;
56457;SDS011;42360;42.918;12.366;2022-07-22T04:51:53;5.13;;;4.63;;
56457;SDS011;42360;42.918;12.366;2022-07-22T04:54:19;5.22;;;4.57;;
56457;SDS011;42360;42.918;12.366;2022-07-22T04:56:44;5.38;;;4.55;;
56457;SDS011;42360;42.918;12.366;2022-07-22T04:59:10;6.07;;;4.68;;
56457;SDS011;42360;42.918;12.366;2022-07-22T05:01:36;8.35;;;4.55;;
56457;SDS011;42360;42.918;12.366;2022-07-22T05:04:01;6.50;;;4.50;;
56457;SDS011;42360;42.918;12.366;2022-07-22T05:06:27;6.88;;;4.80;;
56457;SDS011;42360;42.918;12.366;2022-07-22T05:08:53;8.88;;;4.40;;
56457;SDS011;42360;42.918;12.366;2022-07-22T05:11:19;5.03;;;4.57;;
56457;SDS011;42360;42.918;12.366;2022-07-22T05:13:44;5.13;;;4.70;;
56457;SDS011;42360;42.918;12.366;2022-07-22T05:16:10;9.35;;;4.90;;
56457;SDS011;42360;42.918;12.366;2022-07-22T05:18:36;5.15;;;4.65;;
56457;SDS011;42360;42.918;12.366;2022-07-22T05:21:02;5.28;;;4.60;;
56457;SDS011;42360;42.918;12.366;2022-07-22T05:23:28;5.60;;;5.10;;
56457;SDS011;42360;42.918;12.366;2022-07-22T05:25:54;5.97;;;4.28;;
56457;SDS011;42360;42.918;12.366;2022-07-22T05:28:20;5.93;;;4.68;;
56457;SDS011;42360;42.918;12.366;2022-07-22T05:30:45;5.80;;;5.03;;
56457;SDS011;42360;42.918;12.366;2022-07-22T05:33:11;5.78;;;4.53;;
56457;SDS011;42360;42.918;12.366;2022-07-22T05:35:37;8.25;;;4.95;;
56457;SDS011;42360;42.918;12.366;2022-07-22T05:38:02;7.93;;;4.32;;
56457;SDS011;42360;42.918;12.366;2022-07-22T05:40:28;5.50;;;4.28;;
56457;SDS011;42360;42.918;12.366;2022-07-22T05:42:54;8.90;;;4.38;;
56457;SDS011;42360;42.918;12.366;2022-07-22T05:45:19;6.45;;;3.95;;
56457;SDS011;42360;42.918;12.366;2022-07-22T05:47:45;4.65;;;3.97;;
56457;SDS011;42360;42.918;12.366;2022-07-22T05:50:11;5.15;;;3.92;;
56457;SDS011;42360;42.918;12.366;2022-07-22T05:52:36;4.55;;;3.22;;
56457;SDS011;42360;42.918;12.366;2022-07-22T05:55:03;7.95;;;3.70;;
56457;SDS011;42360;42.918;12.366;2022-07-22T05:57:30;4.18;;;3.50;;
56457;SDS011;42360;42.918;12.366;2022-07-22T05:59:55;5.93;;;3.50;;
56457;SDS011;42360;42.918;12.366;2022-07-22T06:02:21;4.20;;;3.13;;
56457;SDS011;42360;42.918;12.366;2022-07-22T06:04:46;6.20;;;3.42;;
56457;SDS011;42360;42.918;12.366;2022-07-22T06:07:12;5.35;;;3.30;;
56457;SDS011;42360;42.918;12.366;2022-07-22T06:09:38;5.15;;;3.47;;
56457;SDS011;42360;42.918;12.366;2022-07-22T06:12:03;5.85;;;4.10;;
56457;SDS011;42360;42.918;12.366;2022-07-22T06:14:29;3.88;;;3.58;;
56457;SDS011;42360;42.918;12.366;2022-07-22T06:16:55;6.90;;;3.90;;
56457;SDS011;42360;42.918;12.366;2022-07-22T06:19:21;6.60;;;4.20;;
56457;SDS011;42360;42.918;12.366;2022-07-22T06:21:46;7.00;;;3.80;;
56457;SDS011;42360;42.918;12.366;2022-07-22T06:24:12;5.10;;;3.95;;
56457;SDS011;42360;42.918;12.366;2022-07-22T06:26:37;11.05;;;4.53;;
56457;SDS011;42360;42.918;12.366;2022-07-22T06:29:03;5.57;;;3.60;;
56457;SDS011;42360;42.918;12.366;2022-07-22T06:31:29;6.68;;;4.03;;
56457;SDS011;42360;42.918;12.366;2022-07-22T06:33:54;5.53;;;3.75;;
56457;SDS011;42360;42.918;12.366;2022-07-22T06:36:20;7.80;;;3.65;;
56457;SDS011;42360;42.918;12.366;2022-07-22T06:38:45;7.18;;;3.20;;
56457;SDS011;42360;42.918;12.366;2022-07-22T06:41:11;5.57;;;3.80;;
56457;SDS011;42360;42.918;12.366;2022-07-22T06:43:38;6.95;;;4.05;;
56457;SDS011;42360;42.918;12.366;2022-07-22T06:46:05;3.70;;;3.40;;
56457;SDS011;42360;42.918;12.366;2022-07-22T06:48:30;5.13;;;3.72;;
56457;SDS011;42360;42.918;12.366;2022-07-22T06:50:56;5.63;;;4.05;;
56457;SDS011;42360;42.918;12.366;2022-07-22T06:53:21;8.05;;;3.90;;
56457;SDS011;42360;42.918;12.366;2022-07-22T06:55:47;5.60;;;4.07;;
56457;SDS011;42360;42.918;12.366;2022-07-22T06:58:13;5.40;;;3.90;;
56457;SDS011;42360;42.918;12.366;2022-07-22T07:00:39;5.18;;;3.83;;
56457;SDS011;42360;42.918;12.366;2022-07-22T07:03:05;7.53;;;4.63;;
56457;SDS011;42360;42.918;12.366;2022-07-22T07:05:30;6.88;;;3.78;;
56457;SDS011;42360;42.918;12.366;2022-07-22T07:07:56;5.15;;;4.65;;
56457;SDS011;42360;42.918;12.366;2022-07-22T07:10:22;5.40;;;4.43;;
56457;SDS011;42360;42.918;12.366;2022-07-22T07:12:47;5.18;;;4.60;;
56457;SDS011;42360;42.918;12.366;2022-07-22T07:15:13;6.82;;;4.55;;
56457;SDS011;42360;42.918;12.366;2022-07-22T07:17:39;5.35;;;4.85;;
56457;SDS011;42360;42.918;12.366;2022-07-22T07:20:05;4.97;;;4.10;;
56457;SDS011;42360;42.918;12.366;2022-07-22T07:22:32;5.82;;;4.32;;
56457;SDS011;42360;42.918;12.366;2022-07-22T07:25:01;4.78;;;4.28;;
56457;SDS011;42360;42.918;12.366;2022-07-22T07:27:30;4.70;;;4.32;;
56457;SDS011;42360;42.918;12.366;2022-07-22T07:29:56;5.70;;;4.43;;
56457;SDS011;42360;42.918;12.366;2022-07-22T07:32:22;5.25;;;4.75;;
56457;SDS011;42360;42.918;12.366;2022-07-22T07:34:47;7.10;;;4.38;;
56457;SDS011;42360;42.918;12.366;2022-07-22T07:37:13;4.80;;;4.40;;
56457;SDS011;42360;42.918;12.366;2022-07-22T07:39:39;8.20;;;4.38;;
56457;SDS011;42360;42.918;12.366;2022-07-22T07:42:04;5.90;;;4.35;;
56457;SDS011;42360;42.918;12.366;2022-07-22T07:44:30;8.63;;;4.70;;
56457;SDS011;42360;42.918;12.366;2022-07-22T07:46:56;7.32;;;5.18;;
56457;SDS011;42360;42.918;12.366;2022-07-22T07:49:22;9.90;;;4.68;;
56457;SDS011;42360;42.918;12.366;2022-07-22T07:51:48;5.10;;;4.60;;
56457;SDS011;42360;42.918;12.366;2022-07-22T07:54:14;6.32;;;4.18;;
56457;SDS011;42360;42.918;12.366;2022-07-22T07:56:39;5.43;;;4.93;;
56457;SDS011;42360;42.918;12.366;2022-07-22T07:59:05;5.47;;;4.43;;
56457;SDS011;42360;42.918;12.366;2022-07-22T08:01:31;5.55;;;4.20;;
56457;SDS011;42360;42.918;12.366;2022-07-22T08:03:56;8.63;;;4.78;;
56457;SDS011;42360;42.918;12.366;2022-07-22T08:06:22;7.97;;;4.57;;
56457;SDS011;42360;42.918;12.366;2022-07-22T08:08:48;5.10;;;4.53;;
56457;SDS011;42360;42.918;12.366;2022-07-22T08:11:13;6.88;;;4.80;;
56457;SDS011;42360;42.918;12.366;2022-07-22T08:13:39;6.28;;;5.53;;
56457;SDS011;42360;42.918;12.366;2022-07-22T08:16:04;4.90;;;4.40;;
56457;SDS011;42360;42.918;12.366;2022-07-22T08:18:30;5.10;;;4.65;;
56457;SDS011;42360;42.918;12.366;2022-07-22T08:20:56;6.40;;;4.55;;
56457;SDS011;42360;42.918;12.366;2022-07-22T08:23:22;6.75;;;4.38;;
56457;SDS011;42360;42.918;12.366;2022-07-22T08:25:47;5.50;;;4.20;;
56457;SDS011;42360;42.918;12.366;2022-07-22T08:28:16;7.53;;;4.40;;
56457;SDS011;42360;42.918;12.366;2022-07-22T08:30:42;9.32;;;4.50;;
56457;SDS011;42360;42.918;12.366;2022-07-22T08:33:08;8.18;;;4.78;;
56457;SDS011;42360;42.918;12.366;2022-07-22T08:35:34;5.45;;;4.90;;
56457;SDS011;42360;42.918;12.366;2022-07-22T08:38:00;7.60;;;5.00;;
56457;SDS011;42360;42.918;12.366;2022-07-22T08:40:26;6.40;;;4.65;;
56457;SDS011;42360;42.918;12.366;2022-07-22T08:42:52;8.70;;;5.00;;
56457;SDS011;42360;42.918;12.366;2022-07-22T08:45:18;5.30;;;4.30;;
56457;SDS011;42360;42.918;12.366;2022-07-22T08:47:45;4.95;;;4.45;;
56457;SDS011;42360;42.918;12.366;2022-07-22T08:50:11;9.32;;;4.95;;
56457;SDS011;42360;42.918;12.366;2022-07-22T08:52:37;5.13;;;4.63;;
56457;SDS011;42360;42.918;12.366;2022-07-22T08:55:04;5.80;;;4.43;;
56457;SDS011;42360;42.918;12.366;2022-07-22T08:57:30;4.55;;;4.13;;
56457;SDS011;42360;42.918;12.366;2022-07-22T08:59:57;7.18;;;4.30;;
56457;SDS011;42360;42.918;12.366;2022-07-22T09:02:24;5.97;;;4.75;;
56457;SDS011;42360;42.918;12.366;2022-07-22T09:04:57;4.70;;;4.35;;
56457;SDS011;42360;42.918;12.366;2022-07-22T09:07:31;4.20;;;3.67;;
56457;SDS011;42360;42.918;12.366;2022-07-22T09:09:59;4.40;;;4.00;;
56457;SDS011;42360;42.918;12.366;2022-07-22T09:12:26;6.18;;;4.13;;
56457;SDS011;42360;42.918;12.366;2022-07-22T09:14:57;7.85;;;4.55;;
56457;SDS011;42360;42.918;12.366;2022-07-22T09:17:31;4.85;;;4.30;;
56457;SDS011;42360;42.918;12.366;2022-07-22T09:20:02;5.20;;;3.70;;
56457;SDS011;42360;42.918;12.366;2022-07-22T09:27:54;4.20;;;3.80;;
56457;SDS011;42360;42.918;12.366;2022-07-22T09:30:23;4.10;;;3.70;;
56457;SDS011;42360;42.918;12.366;2022-07-22T09:32:52;5.68;;;4.15;;
56457;SDS011;42360;42.918;12.366;2022-07-22T09:35:19;4.27;;;3.63;;
56457;SDS011;42360;42.918;12.366;2022-07-22T09:40:20;4.97;;;3.22;;
56457;SDS011;42360;42.918;12.366;2022-07-22T09:42:50;4.20;;;3.80;;
56457;SDS011;42360;42.918;12.366;2022-07-22T09:45:20;4.43;;;4.03;;
56457;SDS011;42360;42.918;12.366;2022-07-22T09:47:47;5.10;;;3.88;;
56457;SDS011;42360;42.918;12.366;2022-07-22T09:50:19;4.00;;;3.60;;
56457;SDS011;42360;42.918;12.366;2022-07-22T09:52:46;5.30;;;3.90;;
56457;SDS011;42360;42.918;12.366;2022-07-22T09:55:16;4.70;;;3.70;;
56457;SDS011;42360;42.918;12.366;2022-07-22T09:57:42;4.40;;;3.88;;
56457;SDS011;42360;42.918;12.366;2022-07-22T10:00:08;4.22;;;3.47;;
56457;SDS011;42360;42.918;12.366;2022-07-22T10:02:42;6.57;;;4.20;;
56457;SDS011;42360;42.918;12.366;2022-07-22T10:05:14;4.18;;;3.78;;
56457;SDS011;42360;42.918;12.366;2022-07-22T10:07:44;4.35;;;3.92;;
56457;SDS011;42360;42.918;12.366;2022-07-22T10:10:11;9.65;;;3.80;;
56457;SDS011;42360;42.918;12.366;2022-07-22T10:12:39;4.95;;;3.65;;
56457;SDS011;42360;42.918;12.366;2022-07-22T10:15:06;4.13;;;3.45;;
56457;SDS011;42360;42.918;12.366;2022-07-22T10:17:34;4.25;;;3.70;;
56457;SDS011;42360;42.918;12.366;2022-07-22T10:20:01;4.10;;;3.80;;
56457;SDS011;42360;42.918;12.366;2022-07-22T10:25:07;4.07;;;3.75;;
56457;SDS011;42360;42.918;12.366;2022-07-22T10:27:47;4.05;;;3.42;;
56457;SDS011;42360;42.918;12.366;2022-07-22T10:30:15;3.75;;;3.45;;
56457;SDS011;42360;42.918;12.366;2022-07-22T10:32:43;4.22;;;3.83;;
56457;SDS011;42360;42.918;12.366;2022-07-22T10:40:21;4.28;;;3.40;;
56457;SDS011;42360;42.918;12.366;2022-07-22T10:45:24;4.32;;;3.20;;
56457;SDS011;42360;42.918;12.366;2022-07-22T10:47:52;3.72;;;3.42;;
56457;SDS011;42360;42.918;12.366;2022-07-22T10:55:36;13.27;;;4.47;;
56457;SDS011;42360;42.918;12.366;2022-07-22T11:01:00;4.22;;;3.10;;
56457;SDS011;42360;42.918;12.366;2022-07-22T11:03:29;3.13;;;2.92;;
56457;SDS011;42360;42.918;12.366;2022-07-22T11:05:56;6.47;;;3.42;;
56457;SDS011;42360;42.918;12.366;2022-07-22T11:08:22;3.67;;;3.30;;
56457;SDS011;42360;42.918;12.366;2022-07-22T11:10:48;3.53;;;3.22;;
56457;SDS011;42360;42.918;12.366;2022-07-22T11:13:36;3.30;;;3.00;;
56457;SDS011;42360;42.918;12.366;2022-07-22T11:16:14;4.07;;;2.90;;
56457;SDS011;42360;42.918;12.366;2022-07-22T11:18:47;4.47;;;3.00;;
56457;SDS011;42360;42.918;12.366;2022-07-22T11:21:15;4.18;;;2.78;;
56457;SDS011;42360;42.918;12.366;2022-07-22T11:23:42;3.67;;;2.80;;
56457;SDS011;42360;42.918;12.366;2022-07-22T11:26:09;3.25;;;3.05;;
56457;SDS011;42360;42.918;12.366;2022-07-22T11:28:40;3.42;;;3.13;;
56457;SDS011;42360;42.918;12.366;2022-07-22T11:31:07;3.90;;;3.53;;
56457;SDS011;42360;42.918;12.366;2022-07-22T11:33:33;6.07;;;3.17;;
56457;SDS011;42360;42.918;12.366;2022-07-22T11:36:03;6.10;;;3.35;;
56457;SDS011;42360;42.918;12.366;2022-07-22T11:38:39;4.05;;;3.65;;
56457;SDS011;42360;42.918;12.366;2022-07-22T11:41:12;4.85;;;3.80;;
56457;SDS011;42360;42.918;12.366;2022-07-22T11:43:39;3.72;;;3.33;;
56457;SDS011;42360;42.918;12.366;2022-07-22T11:46:09;3.60;;;3.17;;
56457;SDS011;42360;42.918;12.366;2022-07-22T11:48:35;3.78;;;3.47;;
56457;SDS011;42360;42.918;12.366;2022-07-22T11:51:03;4.40;;;3.55;;
56457;SDS011;42360;42.918;12.366;2022-07-22T11:53:30;3.72;;;3.42;;
56457;SDS011;42360;42.918;12.366;2022-07-22T11:55:56;4.20;;;3.50;;
56457;SDS011;42360;42.918;12.366;2022-07-22T12:01:09;3.80;;;3.50;;
56457;SDS011;42360;42.918;12.366;2022-07-22T12:03:40;3.63;;;3.38;;
56457;SDS011;42360;42.918;12.366;2022-07-22T12:06:11;3.63;;;3.33;;
56457;SDS011;42360;42.918;12.366;2022-07-22T12:08:41;3.90;;;3.20;;
56457;SDS011;42360;42.918;12.366;2022-07-22T12:11:09;4.72;;;3.45;;
56457;SDS011;42360;42.918;12.366;2022-07-22T12:13:37;4.22;;;3.80;;
56457;SDS011;42360;42.918;12.366;2022-07-22T12:19:06;3.80;;;3.50;;
56457;SDS011;42360;42.918;12.366;2022-07-22T12:21:36;5.00;;;3.60;;
56457;SDS011;42360;42.918;12.366;2022-07-22T12:24:32;5.25;;;3.70;;
56457;SDS011;42360;42.918;12.366;2022-07-22T12:27:04;5.13;;;4.10;;
56457;SDS011;42360;42.918;12.366;2022-07-22T12:32:01;5.88;;;3.72;;
56457;SDS011;42360;42.918;12.366;2022-07-22T12:37:12;3.58;;;3.17;;
56457;SDS011;42360;42.918;12.366;2022-07-22T12:39:57;4.03;;;3.63;;
56457;SDS011;42360;42.918;12.366;2022-07-22T12:42:33;4.78;;;3.75;;
56457;SDS011;42360;42.918;12.366;2022-07-22T12:45:05;4.03;;;3.47;;
56457;SDS011;42360;42.918;12.366;2022-07-22T12:47:50;3.50;;;3.22;;
56457;SDS011;42360;42.918;12.366;2022-07-22T12:50:32;6.32;;;3.60;;
56457;SDS011;42360;42.918;12.366;2022-07-22T12:53:04;3.78;;;3.28;;
56457;SDS011;42360;42.918;12.366;2022-07-22T12:55:35;3.60;;;3.30;;
56457;SDS011;42360;42.918;12.366;2022-07-22T12:58:05;4.75;;;3.40;;
56457;SDS011;42360;42.918;12.366;2022-07-22T13:00:33;3.50;;;3.20;;
56457;SDS011;42360;42.918;12.366;2022-07-22T13:03:00;5.18;;;3.40;;
56457;SDS011;42360;42.918;12.366;2022-07-22T13:05:26;4.00;;;3.30;;
56457;SDS011;42360;42.918;12.366;2022-07-22T13:07:52;3.85;;;3.00;;
56457;SDS011;42360;42.918;12.366;2022-07-22T13:10:19;3.30;;;3.00;;
56457;SDS011;42360;42.918;12.366;2022-07-22T13:12:46;4.35;;;2.88;;
56457;SDS011;42360;42.918;12.366;2022-07-22T13:15:12;5.20;;;3.08;;
56457;SDS011;42360;42.918;12.366;2022-07-22T13:17:38;4.57;;;2.83;;
56457;SDS011;42360;42.918;12.366;2022-07-22T13:20:05;4.35;;;3.10;;
56457;SDS011;42360;42.918;12.366;2022-07-22T13:22:33;5.05;;;3.20;;
56457;SDS011;42360;42.918;12.366;2022-07-22T13:24:59;4.05;;;3.13;;
56457;SDS011;42360;42.918;12.366;2022-07-22T13:27:24;4.85;;;3.00;;
56457;SDS011;42360;42.918;12.366;2022-07-22T13:29:50;3.80;;;2.85;;
56457;SDS011;42360;42.918;12.366;2022-07-22T13:32:16;3.15;;;2.88;;
56457;SDS011;42360;42.918;12.366;2022-07-22T13:34:41;4.03;;;2.70;;
56457;SDS011;42360;42.918;12.366;2022-07-22T13:37:07;3.88;;;2.85;;
56457;SDS011;42360;42.918;12.366;2022-07-22T13:39:33;3.10;;;2.80;;
56457;SDS011;42360;42.918;12.366;2022-07-22T13:41:59;3.75;;;2.83;;
56457;SDS011;42360;42.918;12.366;2022-07-22T13:44:24;3.35;;;2.92;;
56457;SDS011;42360;42.918;12.366;2022-07-22T13:46:50;3.00;;;2.70;;
56457;SDS011;42360;42.918;12.366;2022-07-22T13:49:16;3.10;;;2.90;;
56457;SDS011;42360;42.918;12.366;2022-07-22T13:51:41;4.00;;;3.08;;
56457;SDS011;42360;42.918;12.366;2022-07-22T13:54:07;2.90;;;2.70;;
56457;SDS011;42360;42.918;12.366;2022-07-22T13:56:33;6.63;;;3.33;;
56457;SDS011;42360;42.918;12.366;2022-07-22T13:58:59;5.95;;;2.90;;
56457;SDS011;42360;42.918;12.366;2022-07-22T14:01:25;8.05;;;3.60;;
56457;SDS011;42360;42.918;12.366;2022-07-22T14:03:51;5.20;;;2.60;;
56457;SDS011;42360;42.918;12.366;2022-07-22T14:06:17;3.30;;;3.08;;
56457;SDS011;42360;42.918;12.366;2022-07-22T14:08:43;11.27;;;3.47;;
56457;SDS011;42360;42.918;12.366;2022-07-22T14:11:08;5.30;;;3.10;;
56457;SDS011;42360;42.918;12.366;2022-07-22T14:13:34;4.30;;;2.97;;
56457;SDS011;42360;42.918;12.366;2022-07-22T14:16:03;3.40;;;3.10;;
56457;SDS011;42360;42.918;12.366;2022-07-22T14:18:47;5.07;;;3.33;;
56457;SDS011;42360;42.918;12.366;2022-07-22T14:21:13;3.55;;;3.00;;
56457;SDS011;42360;42.918;12.366;2022-07-22T14:23:39;4.15;;;3.17;;
56457;SDS011;42360;42.918;12.366;2022-07-22T14:26:05;3.95;;;2.90;;
56457;SDS011;42360;42.918;12.366;2022-07-22T14:28:30;4.13;;;3.47;;
56457;SDS011;42360;42.918;12.366;2022-07-22T14:30:57;4.95;;;3.50;;
56457;SDS011;42360;42.918;12.366;2022-07-22T14:33:22;3.95;;;2.60;;
56457;SDS011;42360;42.918;12.366;2022-07-22T14:35:48;5.53;;;3.20;;
56457;SDS011;42360;42.918;12.366;2022-07-22T14:38:14;3.78;;;3.40;;
56457;SDS011;42360;42.918;12.366;2022-07-22T14:40:40;4.43;;;3.22;;
56457;SDS011;42360;42.918;12.366;2022-07-22T14:43:05;3.38;;;3.05;;
56457;SDS011;42360;42.918;12.366;2022-07-22T14:45:31;4.15;;;3.65;;
56457;SDS011;42360;42.918;12.366;2022-07-22T14:47:57;4.70;;;3.40;;
56457;SDS011;42360;42.918;12.366;2022-07-22T14:50:22;5.72;;;3.83;;
56457;SDS011;42360;42.918;12.366;2022-07-22T14:52:48;4.80;;;3.58;;
56457;SDS011;42360;42.918;12.366;2022-07-22T14:55:14;6.63;;;3.70;;
56457;SDS011;42360;42.918;12.366;2022-07-22T14:57:39;7.20;;;3.67;;
56457;SDS011;42360;42.918;12.366;2022-07-22T15:00:05;4.72;;;3.28;;
56457;SDS011;42360;42.918;12.366;2022-07-22T15:02:32;4.72;;;3.42;;
56457;SDS011;42360;42.918;12.366;2022-07-22T15:04:57;5.72;;;3.50;;
56457;SDS011;42360;42.918;12.366;2022-07-22T15:07:23;6.65;;;3.85;;
56457;SDS011;42360;42.918;12.366;2022-07-22T15:09:48;4.07;;;3.00;;
56457;SDS011;42360;42.918;12.366;2022-07-22T15:12:14;4.00;;;3.55;;